Oak Hill, Virginia
Current Conditions -  °F | °C
As of 1:52 PM on Thursday 23 Oct 2014 (Local Time) from KIAD Reporting Station
Broken Clouds Broken Clouds  
Wind Chill: 62°   Ceiling: 4700
Heat Index: 62°   Visibility: 10mi
Dew Point: 44°   Wind: 21mph
Humidity: 52%   Direction: 330°NNW
Pressure: 29.88"   Gusts: 32mph
Location:  38.9257°N, 77.398°W
Report Text: KIAD 231752Z 33018G28KT 10SM BKN047 17/07 A2988 RMK AO2 PK WND 34031/1700 SLP117 T01670067 10178 20106 58011
Loading
Personal Weather Stations






























Interactive Weather Map
Tropical Storm Tracking
New forecast layout! Learn more

10-Day Weather Forecast

Advertisements
Track Severe Weather on mobile